createdAt,value
2022-10-13T00:00:41.779Z,10.80
2022-10-13T00:03:09.616Z,10.80
2022-10-13T00:05:48.832Z,10.90
2022-10-13T00:08:21.050Z,10.90
2022-10-13T00:10:50.174Z,10.90
2022-10-13T00:13:18.201Z,10.90
2022-10-13T00:15:46.216Z,10.90
2022-10-13T00:18:13.670Z,10.90
2022-10-13T00:20:46.319Z,11.00
2022-10-13T00:23:13.995Z,11.00
2022-10-13T00:25:45.644Z,11.00
2022-10-13T00:28:14.998Z,11.00
2022-10-13T00:30:42.227Z,11.00
2022-10-13T00:33:10.556Z,11.00
2022-10-13T00:35:45.813Z,10.90
2022-10-13T00:38:20.007Z,11.00
2022-10-13T00:40:52.245Z,11.00
2022-10-13T00:43:22.821Z,11.00
2022-10-13T00:45:51.981Z,11.10
2022-10-13T00:48:25.887Z,11.20
2022-10-13T00:50:53.484Z,11.10
2022-10-13T00:53:23.257Z,11.20
2022-10-13T00:55:51.157Z,11.10
2022-10-13T00:58:22.960Z,11.20
2022-10-13T01:00:52.935Z,11.20
2022-10-13T01:03:20.554Z,11.20
2022-10-13T01:05:48.573Z,11.20
2022-10-13T01:08:16.480Z,11.20
2022-10-13T01:10:57.468Z,11.20
2022-10-13T01:13:49.060Z,11.20
2022-10-13T01:16:40.946Z,11.20
2022-10-13T01:19:25.315Z,11.20
2022-10-13T01:21:58.058Z,11.30
2022-10-13T01:24:48.072Z,11.30
2022-10-13T01:27:40.092Z,11.30
2022-10-13T01:30:10.034Z,11.30
2022-10-13T01:33:02.745Z,11.40
2022-10-13T01:35:50.696Z,11.40
2022-10-13T01:39:05.037Z,11.40
2022-10-13T01:41:39.232Z,11.50
2022-10-13T01:44:16.908Z,11.40
2022-10-13T01:46:45.847Z,11.50
2022-10-13T01:49:15.459Z,11.50
2022-10-13T01:51:44.716Z,11.50
2022-10-13T01:54:11.485Z,11.60
2022-10-13T01:56:38.312Z,11.60
2022-10-13T01:59:10.346Z,11.70
2022-10-13T02:01:40.473Z,11.70
2022-10-13T02:04:21.237Z,11.80
2022-10-13T02:07:10.194Z,11.80
2022-10-13T02:09:57.168Z,11.80
2022-10-13T02:12:34.898Z,11.90
2022-10-13T02:15:03.227Z,11.70
2022-10-13T02:17:31.801Z,11.90
2022-10-13T02:19:59.067Z,11.90
2022-10-13T02:22:30.642Z,11.90
2022-10-13T02:24:57.507Z,12.10
2022-10-13T02:27:24.995Z,11.90
2022-10-13T02:29:57.252Z,12.00
2022-10-13T02:32:24.297Z,12.00
2022-10-13T02:34:51.349Z,11.90
2022-10-13T02:37:18.593Z,12.10
2022-10-13T02:39:45.342Z,12.10
2022-10-13T02:42:12.365Z,12.00
2022-10-13T02:44:40.164Z,12.10
2022-10-13T02:47:07.001Z,12.20
2022-10-13T02:49:33.713Z,12.20
2022-10-13T02:52:00.559Z,12.20
2022-10-13T02:54:27.371Z,12.30
2022-10-13T02:56:54.382Z,12.30
2022-10-13T02:59:22.306Z,12.30
2022-10-13T03:01:50.141Z,12.40
2022-10-13T03:04:16.922Z,12.40
2022-10-13T03:06:43.743Z,12.60
2022-10-13T03:09:11.393Z,12.50
2022-10-13T03:11:38.146Z,12.50
2022-10-13T03:14:04.947Z,12.50
2022-10-13T03:16:31.715Z,12.50
2022-10-13T03:18:59.579Z,12.50
2022-10-13T03:21:26.324Z,12.50
2022-10-13T03:23:54.278Z,12.50
2022-10-13T03:26:21.223Z,12.60
2022-10-13T03:28:51.750Z,12.60
2022-10-13T03:31:18.958Z,12.60
2022-10-13T03:33:45.986Z,12.60
2022-10-13T03:36:16.354Z,12.60
2022-10-13T03:38:43.600Z,12.60
2022-10-13T03:41:16.987Z,12.60
2022-10-13T03:43:44.949Z,12.60
2022-10-13T03:46:15.153Z,12.70
2022-10-13T03:48:42.108Z,12.70
2022-10-13T03:51:15.021Z,12.70
2022-10-13T03:53:42.969Z,12.70
2022-10-13T03:56:17.526Z,12.70
2022-10-13T03:58:44.428Z,12.70
2022-10-13T04:01:12.774Z,12.70
2022-10-13T04:03:39.661Z,12.80
2022-10-13T04:06:07.689Z,12.80
2022-10-13T04:08:34.588Z,12.80
2022-10-13T04:11:10.842Z,12.70
2022-10-13T04:13:39.929Z,12.90
2022-10-13T04:16:15.381Z,12.70
2022-10-13T04:18:44.837Z,12.80
2022-10-13T04:21:14.397Z,12.70
2022-10-13T04:23:41.208Z,12.70
2022-10-13T04:26:19.350Z,12.80
2022-10-13T04:28:48.203Z,12.80
2022-10-13T04:31:15.141Z,12.70
2022-10-13T04:33:42.192Z,12.70
2022-10-13T04:36:11.258Z,12.80
2022-10-13T04:38:40.689Z,12.80
2022-10-13T04:41:08.784Z,12.80
2022-10-13T04:43:35.972Z,12.70
2022-10-13T04:46:23.995Z,12.80
2022-10-13T04:48:51.272Z,12.80
2022-10-13T04:51:20.653Z,12.80
2022-10-13T04:53:48.884Z,12.80
2022-10-13T04:56:17.817Z,12.80
2022-10-13T04:58:45.991Z,12.90
2022-10-13T05:01:21.468Z,12.90
2022-10-13T05:03:54.980Z,13.60
2022-10-13T05:06:32.082Z,12.50
2022-10-13T05:08:59.751Z,13.00
2022-10-13T05:11:27.983Z,13.60
2022-10-13T05:13:55.683Z,13.10
2022-10-13T05:16:23.092Z,12.90
2022-10-13T05:18:51.069Z,13.70
2022-10-13T05:21:20.534Z,12.60
2022-10-13T05:23:47.356Z,12.80
2022-10-13T05:26:16.923Z,12.80
2022-10-13T05:28:44.627Z,13.60
2022-10-13T05:31:16.751Z,12.80
2022-10-13T05:33:45.473Z,12.80
2022-10-13T05:36:21.536Z,12.70
2022-10-13T05:38:53.052Z,12.50
2022-10-13T05:41:20.557Z,13.10
2022-10-13T05:43:47.404Z,13.10
2022-10-13T05:46:14.445Z,13.50
2022-10-13T05:48:41.223Z,13.30
2022-10-13T05:51:17.936Z,13.00
2022-10-13T05:53:55.373Z,12.90
2022-10-13T05:56:30.017Z,13.40
2022-10-13T05:59:00.921Z,12.70
2022-10-13T06:01:31.362Z,12.80
2022-10-13T06:04:03.452Z,13.60
2022-10-13T06:06:31.628Z,13.70
2022-10-13T06:08:59.940Z,13.90
2022-10-13T06:11:26.986Z,13.40
2022-10-13T06:13:53.738Z,13.40
2022-10-13T06:16:20.453Z,13.70
2022-10-13T06:18:47.261Z,13.20
2022-10-13T06:21:14.008Z,13.20
2022-10-13T06:23:40.815Z,13.70
2022-10-13T06:26:09.203Z,13.30
2022-10-13T06:28:36.075Z,13.70
2022-10-13T06:31:07.414Z,13.40
2022-10-13T06:33:34.512Z,13.30
2022-10-13T06:36:05.364Z,13.50
2022-10-13T06:38:37.943Z,13.40
2022-10-13T06:41:06.037Z,13.40
2022-10-13T06:43:39.663Z,13.40
2022-10-13T06:46:12.402Z,13.40
2022-10-13T06:48:39.682Z,13.40
2022-10-13T06:51:09.731Z,13.50
2022-10-13T06:53:37.886Z,13.50
2022-10-13T06:56:09.087Z,13.50
2022-10-13T06:58:36.946Z,13.50
2022-10-13T07:01:05.504Z,13.50
2022-10-13T07:03:35.673Z,13.50
2022-10-13T07:06:04.268Z,13.50
2022-10-13T07:08:31.886Z,13.50
2022-10-13T07:10:59.133Z,13.50
2022-10-13T07:13:26.275Z,13.70
2022-10-13T07:15:53.091Z,13.80
2022-10-13T07:18:19.858Z,13.90
2022-10-13T07:20:46.708Z,13.90
2022-10-13T07:23:13.391Z,13.80
2022-10-13T07:25:41.270Z,13.90
2022-10-13T07:28:08.098Z,14.40
2022-10-13T07:30:34.820Z,13.90
2022-10-13T07:33:01.587Z,14.00
2022-10-13T07:35:30.673Z,13.90
2022-10-13T07:37:57.822Z,14.10
2022-10-13T07:40:24.898Z,14.20
2022-10-13T07:42:51.635Z,13.60
2022-10-13T07:45:18.777Z,14.00
2022-10-13T07:47:45.521Z,14.00
2022-10-13T07:50:12.447Z,14.10
2022-10-13T07:52:39.316Z,14.10
2022-10-13T07:55:06.593Z,14.10
2022-10-13T07:57:33.470Z,14.20
2022-10-13T08:00:00.421Z,14.20
2022-10-13T08:02:27.325Z,14.30
2022-10-13T08:04:54.102Z,14.30
2022-10-13T08:07:21.147Z,14.30
2022-10-13T08:09:48.225Z,14.30
2022-10-13T08:12:15.068Z,14.50
2022-10-13T08:14:42.462Z,14.30
2022-10-13T08:17:10.358Z,14.30
2022-10-13T08:19:37.170Z,14.30
2022-10-13T08:22:07.829Z,14.20
2022-10-13T08:24:36.668Z,14.20
2022-10-13T08:27:09.804Z,14.20
2022-10-13T08:29:36.559Z,14.20
2022-10-13T08:32:03.418Z,14.70
2022-10-13T08:34:30.238Z,14.30
2022-10-13T08:36:57.703Z,14.60
2022-10-13T08:39:25.258Z,14.50
2022-10-13T08:41:53.096Z,14.50
2022-10-13T08:47:53.022Z,14.60
2022-10-13T08:50:24.480Z,14.40
2022-10-13T08:53:04.592Z,14.40
2022-10-13T08:55:50.173Z,14.70
2022-10-13T08:58:26.952Z,14.50
2022-10-13T09:01:08.953Z,14.60
2022-10-13T09:03:51.113Z,14.60
2022-10-13T09:06:27.817Z,14.70
2022-10-13T09:09:09.608Z,14.70
2022-10-13T09:11:39.111Z,14.80
2022-10-13T09:14:23.676Z,14.80
2022-10-13T09:16:52.217Z,14.70
2022-10-13T09:19:33.939Z,14.70
2022-10-13T09:22:24.308Z,14.70
2022-10-13T09:25:22.970Z,14.80
2022-10-13T09:27:52.738Z,14.60
2022-10-13T09:30:29.146Z,14.60
2022-10-13T09:33:09.090Z,14.70
2022-10-13T09:35:45.943Z,14.70
2022-10-13T09:38:22.768Z,14.80
2022-10-13T09:41:12.477Z,14.80
2022-10-13T09:43:48.186Z,14.80
2022-10-13T09:46:33.269Z,14.90
2022-10-13T09:49:37.876Z,15.00
2022-10-13T09:52:06.327Z,15.10
2022-10-13T09:54:38.603Z,15.30
2022-10-13T09:57:14.212Z,15.80
2022-10-13T09:59:47.110Z,15.50
2022-10-13T10:02:28.684Z,15.50
2022-10-13T10:05:00.081Z,15.90
2022-10-13T10:07:31.976Z,15.90
2022-10-13T10:10:05.363Z,16.10
2022-10-13T10:12:36.541Z,16.30
2022-10-13T10:15:07.953Z,16.30
2022-10-13T10:17:46.625Z,16.30
2022-10-13T10:20:31.302Z,16.30
2022-10-13T10:23:11.284Z,16.10
2022-10-13T10:25:39.894Z,16.50
2022-10-13T10:28:44.472Z,16.30
2022-10-13T10:31:28.825Z,16.10
2022-10-13T10:34:27.166Z,16.10
2022-10-13T10:37:01.187Z,16.10
2022-10-13T10:39:55.780Z,16.10
2022-10-13T10:42:40.522Z,16.10
2022-10-13T10:45:18.096Z,16.10
2022-10-13T10:47:48.854Z,16.20
2022-10-13T10:50:18.583Z,16.20
2022-10-13T10:52:50.359Z,16.30
2022-10-13T10:55:30.097Z,16.30
2022-10-13T10:58:39.231Z,16.30
2022-10-13T11:01:18.413Z,16.40
2022-10-13T11:04:12.583Z,16.50
2022-10-13T11:06:39.538Z,16.50
2022-10-13T11:09:12.322Z,16.40
2022-10-13T11:11:42.850Z,16.50
2022-10-13T11:14:09.574Z,16.50
2022-10-13T11:16:41.579Z,16.50
2022-10-13T11:19:08.481Z,16.60
2022-10-13T11:21:59.013Z,17.40
2022-10-13T11:24:35.063Z,16.80
2022-10-13T11:27:08.002Z,16.80
2022-10-13T11:30:01.756Z,17.40
2022-10-13T11:32:31.219Z,17.00
2022-10-13T11:35:09.745Z,17.60
2022-10-13T11:37:36.534Z,17.20
2022-10-13T11:40:22.926Z,17.20
2022-10-13T11:43:05.052Z,17.20
2022-10-13T11:45:36.281Z,17.20
2022-10-13T11:48:33.301Z,17.10
2022-10-13T11:51:33.038Z,17.20
2022-10-13T11:54:30.233Z,17.10
2022-10-13T11:56:58.368Z,17.10
2022-10-13T11:59:31.002Z,16.90
2022-10-13T12:01:59.124Z,16.90
2022-10-13T12:04:28.249Z,16.90
2022-10-13T12:07:01.954Z,16.70
2022-10-13T12:09:33.776Z,16.80
2022-10-13T12:12:12.528Z,16.80
2022-10-13T12:14:43.271Z,16.80
2022-10-13T12:17:32.054Z,16.80
2022-10-13T12:20:01.818Z,16.80
2022-10-13T12:22:29.133Z,16.60
2022-10-13T12:25:02.122Z,16.60
2022-10-13T12:27:42.272Z,16.90
2022-10-13T12:30:29.625Z,16.60
2022-10-13T12:32:59.390Z,16.50
2022-10-13T12:35:32.240Z,16.50
2022-10-13T12:38:03.801Z,16.50
2022-10-13T12:40:30.953Z,16.50
2022-10-13T12:42:58.103Z,16.40
2022-10-13T12:45:31.503Z,16.20
2022-10-13T12:47:58.389Z,16.50
2022-10-13T12:50:33.587Z,16.40
2022-10-13T12:53:09.444Z,16.40
2022-10-13T12:55:55.911Z,16.40
2022-10-13T12:58:29.636Z,16.30
2022-10-13T13:01:09.955Z,16.30
2022-10-13T13:03:38.360Z,16.60
2022-10-13T13:06:14.373Z,16.20
2022-10-13T13:08:43.253Z,16.20
2022-10-13T13:11:33.002Z,16.20
2022-10-13T13:14:35.513Z,16.20
2022-10-13T13:17:06.523Z,16.20
2022-10-13T13:19:35.283Z,16.20
2022-10-13T13:22:08.853Z,16.30
2022-10-13T13:24:40.046Z,16.30
2022-10-13T13:27:25.393Z,16.20
2022-10-13T13:29:54.059Z,16.10
2022-10-13T13:32:22.593Z,16.20
2022-10-13T13:34:50.233Z,16.10
2022-10-13T13:37:31.099Z,16.00
2022-10-13T13:40:01.201Z,16.00
2022-10-13T13:42:29.101Z,16.00
2022-10-13T13:44:56.487Z,15.90
2022-10-13T13:47:25.871Z,15.80
2022-10-13T13:49:53.979Z,15.70
2022-10-13T13:52:23.673Z,15.70
2022-10-13T13:54:50.865Z,15.60
2022-10-13T13:57:18.481Z,15.20
2022-10-13T13:59:45.865Z,15.50
2022-10-13T14:02:18.343Z,15.40
2022-10-13T14:04:45.354Z,15.40
2022-10-13T14:07:16.534Z,15.30
2022-10-13T14:09:43.251Z,15.30
2022-10-13T14:12:10.030Z,15.30
2022-10-13T14:14:36.741Z,14.70
2022-10-13T14:17:04.122Z,15.70
2022-10-13T14:19:34.413Z,15.30
2022-10-13T14:22:04.742Z,15.30
2022-10-13T14:24:35.281Z,15.30
2022-10-13T14:27:02.521Z,15.30
2022-10-13T14:29:29.385Z,15.30
2022-10-13T14:31:56.179Z,15.30
2022-10-13T14:34:22.977Z,15.30
2022-10-13T14:36:50.311Z,15.40
2022-10-13T14:39:17.059Z,15.40
2022-10-13T14:41:43.908Z,15.50
2022-10-13T14:44:13.633Z,15.40
2022-10-13T14:46:41.226Z,15.50
2022-10-13T14:49:07.913Z,15.50
2022-10-13T14:51:34.709Z,15.50
2022-10-13T14:54:02.711Z,15.50
2022-10-13T14:56:30.472Z,15.20
2022-10-13T14:58:59.440Z,15.50
2022-10-13T15:01:26.316Z,15.50
2022-10-13T15:03:53.265Z,15.80
2022-10-13T15:06:22.583Z,15.60
2022-10-13T15:08:49.839Z,15.70
2022-10-13T15:11:18.230Z,15.80
2022-10-13T15:13:45.430Z,15.90
2022-10-13T15:16:20.543Z,16.00
2022-10-13T15:18:47.358Z,16.20
2022-10-13T15:21:14.298Z,16.00
2022-10-13T15:23:42.598Z,16.20
2022-10-13T15:26:12.010Z,16.20
2022-10-13T15:28:45.331Z,16.20
2022-10-13T15:31:13.173Z,16.20
2022-10-13T15:33:46.570Z,16.20
2022-10-13T15:36:14.780Z,16.20
2022-10-13T15:38:41.869Z,16.10
2022-10-13T15:41:10.348Z,16.10
2022-10-13T15:43:49.396Z,16.50
2022-10-13T15:46:21.646Z,16.50
2022-10-13T15:48:53.200Z,16.00
2022-10-13T15:51:22.399Z,16.00
2022-10-13T15:53:49.437Z,15.90
2022-10-13T15:56:16.709Z,15.80
2022-10-13T15:58:46.037Z,15.80
2022-10-13T16:01:14.564Z,16.00
2022-10-13T16:03:42.250Z,15.70
2022-10-13T16:06:11.457Z,15.70
2022-10-13T16:08:39.945Z,15.70
2022-10-13T16:11:11.619Z,15.60
2022-10-13T16:13:38.883Z,15.80
2022-10-13T16:16:05.924Z,15.60
2022-10-13T16:18:35.194Z,15.50
2022-10-13T16:21:18.496Z,15.90
2022-10-13T16:23:46.671Z,15.50
2022-10-13T16:26:14.051Z,15.50
2022-10-13T16:28:41.153Z,15.40
2022-10-13T16:31:13.944Z,15.40
2022-10-13T16:33:42.001Z,15.40
2022-10-13T16:36:13.562Z,14.90
2022-10-13T16:38:41.847Z,15.30
2022-10-13T16:41:12.423Z,15.30
2022-10-13T16:43:41.617Z,15.40
2022-10-13T16:46:12.914Z,15.30
2022-10-13T16:48:41.079Z,15.50
2022-10-13T16:51:10.614Z,15.30
2022-10-13T16:53:38.677Z,15.20
2022-10-13T16:56:09.695Z,15.20
2022-10-13T16:58:36.775Z,15.10
2022-10-13T17:01:11.395Z,15.10
2022-10-13T17:03:40.150Z,15.10
2022-10-13T17:06:07.327Z,15.00
2022-10-13T17:08:34.499Z,15.00
2022-10-13T17:11:01.934Z,15.00
2022-10-13T17:13:29.962Z,14.90
2022-10-13T17:15:57.702Z,14.80
2022-10-13T17:18:25.330Z,15.20
2022-10-13T17:20:56.288Z,14.80
2022-10-13T17:23:30.986Z,14.80
2022-10-13T17:26:07.193Z,14.80
2022-10-13T17:28:35.533Z,14.80
2022-10-13T17:31:09.667Z,14.80
2022-10-13T17:33:37.708Z,14.80
2022-10-13T17:36:12.049Z,14.80
2022-10-13T17:38:38.905Z,14.80
2022-10-13T17:41:07.611Z,14.80
2022-10-13T17:43:35.004Z,14.80
2022-10-13T17:46:35.177Z,14.80
2022-10-13T17:48:58.837Z,14.80
2022-10-13T17:51:25.625Z,14.60
2022-10-13T17:53:52.925Z,14.70
2022-10-13T17:56:25.484Z,14.70
2022-10-13T17:58:52.877Z,14.70
2022-10-13T18:01:25.090Z,15.20
2022-10-13T18:03:54.870Z,14.70
2022-10-13T18:06:22.497Z,14.70
2022-10-13T18:08:53.054Z,14.60
2022-10-13T18:11:21.942Z,14.60
2022-10-13T18:13:49.181Z,14.60
2022-10-13T18:16:24.027Z,14.60
2022-10-13T18:18:52.083Z,14.60
2022-10-13T18:21:27.236Z,14.60
2022-10-13T18:24:00.827Z,14.50
2022-10-13T18:26:31.871Z,14.50
2022-10-13T18:28:59.081Z,14.50
2022-10-13T18:31:31.274Z,14.50
2022-10-13T18:34:05.018Z,14.40
2022-10-13T18:36:36.875Z,14.40
2022-10-13T18:39:25.794Z,14.30
2022-10-13T18:41:54.111Z,14.40
2022-10-13T18:44:21.474Z,14.40
2022-10-13T18:46:56.596Z,14.40
2022-10-13T18:49:31.126Z,14.30
2022-10-13T18:52:01.972Z,14.40
2022-10-13T18:54:29.749Z,14.50
2022-10-13T18:56:57.263Z,14.50
2022-10-13T18:59:24.079Z,14.60
2022-10-13T19:01:50.989Z,14.50
2022-10-13T19:04:17.985Z,14.50
2022-10-13T19:06:44.954Z,14.50
2022-10-13T19:09:14.166Z,14.50
2022-10-13T19:11:41.429Z,14.50
2022-10-13T19:14:11.497Z,14.50
2022-10-13T19:16:40.678Z,14.50
2022-10-13T19:19:10.462Z,14.50
2022-10-13T19:21:41.229Z,14.60
2022-10-13T19:24:08.838Z,14.50
2022-10-13T19:26:43.219Z,14.50
2022-10-13T19:29:12.663Z,14.50
2022-10-13T19:31:41.520Z,14.50
2022-10-13T19:34:15.216Z,14.50
2022-10-13T19:36:46.620Z,14.50
2022-10-13T19:39:27.490Z,14.50
2022-10-13T19:41:58.867Z,14.70
2022-10-13T19:44:26.067Z,14.90
2022-10-13T19:46:53.810Z,14.50
2022-10-13T19:49:25.132Z,14.70
2022-10-13T19:51:54.030Z,14.50
2022-10-13T19:54:22.356Z,14.50
2022-10-13T19:56:50.443Z,14.40
2022-10-13T19:59:23.554Z,14.40
2022-10-13T20:01:50.345Z,14.30
2022-10-13T20:04:22.694Z,14.50
2022-10-13T20:06:52.679Z,14.40
2022-10-13T20:09:20.826Z,14.40
2022-10-13T20:11:49.926Z,14.50
2022-10-13T20:14:17.648Z,14.40
2022-10-13T20:16:45.740Z,14.50
2022-10-13T20:19:14.424Z,14.50
2022-10-13T20:21:41.404Z,14.50
2022-10-13T20:24:13.884Z,14.50
2022-10-13T20:26:41.128Z,14.40
2022-10-13T20:29:11.186Z,14.40
2022-10-13T20:31:40.572Z,14.40
2022-10-13T20:34:10.927Z,14.40
2022-10-13T20:36:41.271Z,14.40
2022-10-13T20:39:16.529Z,14.50
2022-10-13T20:41:43.844Z,14.40
2022-10-13T20:44:10.895Z,14.40
2022-10-13T20:46:37.877Z,14.30
2022-10-13T20:49:10.816Z,14.60
2022-10-13T20:51:38.246Z,14.30
2022-10-13T20:54:05.254Z,14.30
2022-10-13T20:56:32.099Z,14.30
2022-10-13T20:59:05.029Z,14.30
2022-10-13T21:01:33.565Z,14.30
2022-10-13T21:04:05.168Z,14.20
2022-10-13T21:06:33.073Z,14.20
2022-10-13T21:08:59.908Z,14.20
2022-10-13T21:11:26.824Z,14.10
2022-10-13T21:13:54.031Z,14.10
2022-10-13T21:16:27.319Z,14.10
2022-10-13T21:18:56.296Z,14.10
2022-10-13T21:21:26.232Z,14.10
2022-10-13T21:24:00.770Z,14.10
2022-10-13T21:26:32.535Z,14.00
2022-10-13T21:29:00.918Z,14.00
2022-10-13T21:31:28.359Z,14.00
2022-10-13T21:33:55.597Z,13.90
2022-10-13T21:36:24.982Z,14.00
2022-10-13T21:38:55.835Z,13.80
2022-10-13T21:41:23.993Z,13.80
2022-10-13T21:43:51.937Z,13.80
2022-10-13T21:46:25.185Z,13.80
2022-10-13T21:49:00.843Z,13.70
2022-10-13T21:51:33.613Z,13.70
2022-10-13T21:54:06.083Z,13.70
2022-10-13T21:56:34.856Z,13.70
2022-10-13T21:59:02.122Z,13.60
2022-10-13T22:01:30.067Z,13.60
2022-10-13T22:03:59.603Z,13.60
2022-10-13T22:06:34.258Z,14.00
2022-10-13T22:09:03.464Z,13.50
2022-10-13T22:11:32.763Z,13.50
2022-10-13T22:14:00.195Z,13.40
2022-10-13T22:16:30.550Z,13.30
2022-10-13T22:19:00.564Z,13.30
2022-10-13T22:21:30.441Z,13.20
2022-10-13T22:24:00.815Z,13.10
2022-10-13T22:26:29.926Z,13.10
2022-10-13T22:28:58.351Z,13.00
2022-10-13T22:31:26.777Z,12.90
2022-10-13T22:33:54.757Z,12.80
2022-10-13T22:36:23.511Z,12.50
2022-10-13T22:39:02.186Z,13.20
2022-10-13T22:41:35.985Z,12.60
2022-10-13T22:44:05.757Z,12.50
2022-10-13T22:46:37.801Z,12.40
2022-10-13T22:49:05.841Z,12.40
2022-10-13T22:51:34.424Z,12.40
2022-10-13T22:54:01.794Z,12.40
2022-10-13T22:56:31.151Z,12.40
2022-10-13T22:59:00.856Z,12.40
2022-10-13T23:01:29.357Z,12.90
2022-10-13T23:03:57.788Z,12.20
2022-10-13T23:06:30.613Z,12.60
2022-10-13T23:09:04.622Z,12.40
2022-10-13T23:11:31.679Z,12.40
2022-10-13T23:13:58.675Z,12.40
2022-10-13T23:16:29.059Z,12.40
2022-10-13T23:18:56.001Z,12.40
2022-10-13T23:21:26.194Z,12.40
2022-10-13T23:23:59.812Z,12.40
2022-10-13T23:26:31.060Z,12.40
2022-10-13T23:28:59.180Z,12.40
2022-10-13T23:31:36.422Z,12.50
2022-10-13T23:34:06.466Z,12.40
2022-10-13T23:36:39.941Z,12.10
2022-10-13T23:39:07.711Z,12.30
2022-10-13T23:41:37.639Z,12.00
2022-10-13T23:44:07.039Z,12.30
2022-10-13T23:46:37.160Z,12.40
2022-10-13T23:49:13.190Z,12.40
2022-10-13T23:51:44.259Z,12.40
2022-10-13T23:54:19.412Z,12.20
2022-10-13T23:56:48.730Z,12.40
2022-10-13T23:59:16.108Z,12.30
